Terminal Aerodrome Forecast
Issued by NWS Cleveland, OH

Home | Current Version | Previous Version | Graphics & Text | Print | Product List | Glossary On
Versions: 1 2 3 4 5 6 7 8 9 10 11 12 13 14 15 16 17
000
FTUS41 KCLE 151300 AAA
TAFCAK
TAF AMD
KCAK 151359Z 1514/1612 31012KT 2SM -SN BR OVC009
      TEMPO 1514/1516 5SM -SHSN OVC012
     FM151600 30015G25KT P6SM OVC015
      TEMPO 1517/1521 5SM -SHSN
     FM152100 30015G25KT P6SM OVC025
     FM160200 31009KT P6SM SCT250=

USA.gov is the U.S. government's official web portal to all federal, state and local government web resources and services.